sensor_id;sensor_type;location;lat;lon;timestamp;P1;durP1;ratioP1;P2;durP2;ratioP2
43857;SDS011;29507;51.284;5.758;2022-09-03T00:02:04;4.53;;;1.42;;
43857;SDS011;29507;51.284;5.758;2022-09-03T00:04:38;6.20;;;1.40;;
43857;SDS011;29507;51.284;5.758;2022-09-03T00:07:29;2.85;;;1.33;;
43857;SDS011;29507;51.284;5.758;2022-09-03T00:10:55;5.28;;;1.35;;
43857;SDS011;29507;51.284;5.758;2022-09-03T00:13:19;4.03;;;1.33;;
43857;SDS011;29507;51.284;5.758;2022-09-03T00:15:49;4.95;;;1.77;;
43857;SDS011;29507;51.284;5.758;2022-09-03T00:18:22;3.35;;;1.25;;
43857;SDS011;29507;51.284;5.758;2022-09-03T00:20:57;4.13;;;1.70;;
43857;SDS011;29507;51.284;5.758;2022-09-03T00:23:32;2.97;;;1.30;;
43857;SDS011;29507;51.284;5.758;2022-09-03T00:28:44;3.63;;;1.80;;
43857;SDS011;29507;51.284;5.758;2022-09-03T00:31:24;4.90;;;1.55;;
43857;SDS011;29507;51.284;5.758;2022-09-03T00:33:55;6.30;;;1.92;;
43857;SDS011;29507;51.284;5.758;2022-09-03T00:36:31;5.97;;;1.60;;
43857;SDS011;29507;51.284;5.758;2022-09-03T00:39:06;7.72;;;1.60;;
43857;SDS011;29507;51.284;5.758;2022-09-03T00:41:47;3.05;;;1.55;;
43857;SDS011;29507;51.284;5.758;2022-09-03T00:49:31;3.78;;;1.60;;
43857;SDS011;29507;51.284;5.758;2022-09-03T00:58:01;4.45;;;1.27;;
43857;SDS011;29507;51.284;5.758;2022-09-03T01:00:11;5.05;;;1.30;;
43857;SDS011;29507;51.284;5.758;2022-09-03T01:13:43;5.07;;;1.33;;
43857;SDS011;29507;51.284;5.758;2022-09-03T01:22:12;3.95;;;1.25;;
43857;SDS011;29507;51.284;5.758;2022-09-03T01:30:26;6.05;;;1.13;;
43857;SDS011;29507;51.284;5.758;2022-09-03T01:33:08;3.92;;;2.00;;
43857;SDS011;29507;51.284;5.758;2022-09-03T01:35:44;3.85;;;1.38;;
43857;SDS011;29507;51.284;5.758;2022-09-03T01:38:25;4.63;;;1.20;;
43857;SDS011;29507;51.284;5.758;2022-09-03T01:41:13;3.88;;;1.50;;
43857;SDS011;29507;51.284;5.758;2022-09-03T01:47:04;3.95;;;1.38;;
43857;SDS011;29507;51.284;5.758;2022-09-03T01:49:37;6.10;;;1.33;;
43857;SDS011;29507;51.284;5.758;2022-09-03T01:55:10;3.33;;;1.42;;
43857;SDS011;29507;51.284;5.758;2022-09-03T02:00:20;6.15;;;1.48;;
43857;SDS011;29507;51.284;5.758;2022-09-03T02:02:47;5.65;;;1.25;;
43857;SDS011;29507;51.284;5.758;2022-09-03T02:07:47;3.88;;;1.73;;
43857;SDS011;29507;51.284;5.758;2022-09-03T02:10:46;5.53;;;1.20;;
43857;SDS011;29507;51.284;5.758;2022-09-03T02:13:26;4.32;;;1.65;;
43857;SDS011;29507;51.284;5.758;2022-09-03T02:15:56;2.65;;;1.00;;
43857;SDS011;29507;51.284;5.758;2022-09-03T02:18:26;3.50;;;1.33;;
43857;SDS011;29507;51.284;5.758;2022-09-03T02:20:55;4.05;;;1.17;;
43857;SDS011;29507;51.284;5.758;2022-09-03T02:23:23;3.20;;;1.40;;
43857;SDS011;29507;51.284;5.758;2022-09-03T02:25:59;3.97;;;1.23;;
43857;SDS011;29507;51.284;5.758;2022-09-03T02:28:29;5.05;;;1.27;;
43857;SDS011;29507;51.284;5.758;2022-09-03T02:30:56;3.15;;;1.40;;
43857;SDS011;29507;51.284;5.758;2022-09-03T02:33:22;3.83;;;1.40;;
43857;SDS011;29507;51.284;5.758;2022-09-03T02:35:48;6.32;;;1.48;;
43857;SDS011;29507;51.284;5.758;2022-09-03T02:38:16;3.50;;;1.30;;
43857;SDS011;29507;51.284;5.758;2022-09-03T02:40:43;6.30;;;1.35;;
43857;SDS011;29507;51.284;5.758;2022-09-03T02:43:14;2.45;;;1.05;;
43857;SDS011;29507;51.284;5.758;2022-09-03T02:45:47;4.28;;;1.48;;
43857;SDS011;29507;51.284;5.758;2022-09-03T02:48:17;4.30;;;1.13;;
43857;SDS011;29507;51.284;5.758;2022-09-03T02:53:12;2.65;;;1.30;;
43857;SDS011;29507;51.284;5.758;2022-09-03T02:55:38;5.47;;;1.70;;
43857;SDS011;29507;51.284;5.758;2022-09-03T02:58:03;4.22;;;1.35;;
43857;SDS011;29507;51.284;5.758;2022-09-03T03:00:30;3.30;;;1.15;;
43857;SDS011;29507;51.284;5.758;2022-09-03T03:02:56;3.22;;;1.20;;
43857;SDS011;29507;51.284;5.758;2022-09-03T03:05:27;2.28;;;1.00;;
43857;SDS011;29507;51.284;5.758;2022-09-03T03:08:05;5.18;;;1.48;;
43857;SDS011;29507;51.284;5.758;2022-09-03T03:10:32;4.70;;;1.52;;
43857;SDS011;29507;51.284;5.758;2022-09-03T03:12:59;2.90;;;1.00;;
43857;SDS011;29507;51.284;5.758;2022-09-03T03:15:25;4.80;;;1.10;;
43857;SDS011;29507;51.284;5.758;2022-09-03T03:17:53;4.97;;;1.13;;
43857;SDS011;29507;51.284;5.758;2022-09-03T03:20:20;3.00;;;1.07;;
43857;SDS011;29507;51.284;5.758;2022-09-03T03:22:45;3.67;;;1.00;;
43857;SDS011;29507;51.284;5.758;2022-09-03T03:25:11;4.70;;;1.40;;
43857;SDS011;29507;51.284;5.758;2022-09-03T03:27:36;4.45;;;1.20;;
43857;SDS011;29507;51.284;5.758;2022-09-03T03:30:05;5.88;;;1.30;;
43857;SDS011;29507;51.284;5.758;2022-09-03T03:32:34;6.63;;;1.40;;
43857;SDS011;29507;51.284;5.758;2022-09-03T03:35:02;4.88;;;1.45;;
43857;SDS011;29507;51.284;5.758;2022-09-03T03:37:30;7.80;;;1.50;;
43857;SDS011;29507;51.284;5.758;2022-09-03T03:39:56;7.55;;;1.17;;
43857;SDS011;29507;51.284;5.758;2022-09-03T03:42:22;4.72;;;1.13;;
43857;SDS011;29507;51.284;5.758;2022-09-03T03:44:48;6.25;;;1.30;;
43857;SDS011;29507;51.284;5.758;2022-09-03T03:47:13;5.10;;;1.40;;
43857;SDS011;29507;51.284;5.758;2022-09-03T03:49:41;7.03;;;1.52;;
43857;SDS011;29507;51.284;5.758;2022-09-03T03:52:07;4.10;;;1.20;;
43857;SDS011;29507;51.284;5.758;2022-09-03T03:54:32;6.40;;;1.48;;
43857;SDS011;29507;51.284;5.758;2022-09-03T03:56:58;7.32;;;2.05;;
43857;SDS011;29507;51.284;5.758;2022-09-03T03:59:24;3.45;;;1.00;;
43857;SDS011;29507;51.284;5.758;2022-09-03T04:01:49;5.10;;;1.38;;
43857;SDS011;29507;51.284;5.758;2022-09-03T04:04:15;5.72;;;1.40;;
43857;SDS011;29507;51.284;5.758;2022-09-03T04:06:41;3.25;;;1.00;;
43857;SDS011;29507;51.284;5.758;2022-09-03T04:09:07;5.45;;;1.42;;
43857;SDS011;29507;51.284;5.758;2022-09-03T04:11:32;5.65;;;1.30;;
43857;SDS011;29507;51.284;5.758;2022-09-03T04:13:58;5.85;;;1.10;;
43857;SDS011;29507;51.284;5.758;2022-09-03T04:16:25;3.35;;;1.30;;
43857;SDS011;29507;51.284;5.758;2022-09-03T04:18:54;4.78;;;1.17;;
43857;SDS011;29507;51.284;5.758;2022-09-03T04:21:24;5.10;;;0.93;;
43857;SDS011;29507;51.284;5.758;2022-09-03T04:23:51;8.55;;;1.67;;
43857;SDS011;29507;51.284;5.758;2022-09-03T04:26:18;3.92;;;1.35;;
43857;SDS011;29507;51.284;5.758;2022-09-03T04:28:49;4.15;;;1.10;;
43857;SDS011;29507;51.284;5.758;2022-09-03T04:31:16;9.93;;;1.23;;
43857;SDS011;29507;51.284;5.758;2022-09-03T04:33:43;6.15;;;1.63;;
43857;SDS011;29507;51.284;5.758;2022-09-03T04:36:10;7.18;;;1.83;;
43857;SDS011;29507;51.284;5.758;2022-09-03T04:38:42;5.55;;;1.30;;
43857;SDS011;29507;51.284;5.758;2022-09-03T04:41:10;5.63;;;1.20;;
43857;SDS011;29507;51.284;5.758;2022-09-03T04:43:37;4.57;;;1.40;;
43857;SDS011;29507;51.284;5.758;2022-09-03T04:46:06;4.20;;;1.27;;
43857;SDS011;29507;51.284;5.758;2022-09-03T04:48:34;7.65;;;1.20;;
43857;SDS011;29507;51.284;5.758;2022-09-03T04:51:04;4.60;;;0.90;;
43857;SDS011;29507;51.284;5.758;2022-09-03T04:53:38;6.45;;;1.23;;
43857;SDS011;29507;51.284;5.758;2022-09-03T04:56:16;7.57;;;1.35;;
43857;SDS011;29507;51.284;5.758;2022-09-03T04:58:43;7.68;;;1.73;;
43857;SDS011;29507;51.284;5.758;2022-09-03T05:01:10;5.95;;;1.67;;
43857;SDS011;29507;51.284;5.758;2022-09-03T05:03:37;6.05;;;1.13;;
43857;SDS011;29507;51.284;5.758;2022-09-03T05:06:03;3.72;;;1.10;;
43857;SDS011;29507;51.284;5.758;2022-09-03T05:08:29;3.70;;;1.00;;
43857;SDS011;29507;51.284;5.758;2022-09-03T05:10:58;6.90;;;1.23;;
43857;SDS011;29507;51.284;5.758;2022-09-03T05:13:25;4.43;;;1.35;;
43857;SDS011;29507;51.284;5.758;2022-09-03T05:15:51;5.35;;;1.75;;
43857;SDS011;29507;51.284;5.758;2022-09-03T05:18:16;3.72;;;1.20;;
43857;SDS011;29507;51.284;5.758;2022-09-03T05:20:42;3.00;;;1.25;;
43857;SDS011;29507;51.284;5.758;2022-09-03T05:23:08;3.47;;;1.30;;
43857;SDS011;29507;51.284;5.758;2022-09-03T05:25:33;4.18;;;1.17;;
43857;SDS011;29507;51.284;5.758;2022-09-03T05:27:59;5.00;;;1.25;;
43857;SDS011;29507;51.284;5.758;2022-09-03T05:30:26;6.47;;;1.55;;
43857;SDS011;29507;51.284;5.758;2022-09-03T05:32:51;4.32;;;1.38;;
43857;SDS011;29507;51.284;5.758;2022-09-03T05:35:17;5.70;;;1.40;;
43857;SDS011;29507;51.284;5.758;2022-09-03T05:37:43;4.28;;;1.15;;
43857;SDS011;29507;51.284;5.758;2022-09-03T05:40:09;3.60;;;1.08;;
43857;SDS011;29507;51.284;5.758;2022-09-03T05:42:35;4.90;;;1.10;;
43857;SDS011;29507;51.284;5.758;2022-09-03T05:45:11;5.55;;;1.50;;
43857;SDS011;29507;51.284;5.758;2022-09-03T05:47:37;2.65;;;1.17;;
43857;SDS011;29507;51.284;5.758;2022-09-03T05:50:06;2.70;;;1.15;;
43857;SDS011;29507;51.284;5.758;2022-09-03T05:52:34;4.85;;;1.23;;
43857;SDS011;29507;51.284;5.758;2022-09-03T05:55:01;7.68;;;1.30;;
43857;SDS011;29507;51.284;5.758;2022-09-03T05:57:27;6.22;;;1.70;;
43857;SDS011;29507;51.284;5.758;2022-09-03T05:59:54;3.20;;;1.10;;
43857;SDS011;29507;51.284;5.758;2022-09-03T06:02:20;4.05;;;1.52;;
43857;SDS011;29507;51.284;5.758;2022-09-03T06:04:45;3.30;;;1.20;;
43857;SDS011;29507;51.284;5.758;2022-09-03T06:07:11;2.25;;;0.90;;
43857;SDS011;29507;51.284;5.758;2022-09-03T06:09:37;7.97;;;1.40;;
43857;SDS011;29507;51.284;5.758;2022-09-03T06:12:02;2.45;;;0.82;;
43857;SDS011;29507;51.284;5.758;2022-09-03T06:14:28;7.22;;;1.33;;
43857;SDS011;29507;51.284;5.758;2022-09-03T06:16:54;2.90;;;0.98;;
43857;SDS011;29507;51.284;5.758;2022-09-03T06:19:20;3.75;;;1.40;;
43857;SDS011;29507;51.284;5.758;2022-09-03T06:21:46;5.35;;;0.95;;
43857;SDS011;29507;51.284;5.758;2022-09-03T06:24:13;3.65;;;1.13;;
43857;SDS011;29507;51.284;5.758;2022-09-03T06:26:44;7.20;;;0.90;;
43857;SDS011;29507;51.284;5.758;2022-09-03T06:29:10;7.05;;;1.40;;
43857;SDS011;29507;51.284;5.758;2022-09-03T06:31:36;2.88;;;0.98;;
43857;SDS011;29507;51.284;5.758;2022-09-03T06:34:03;1.38;;;0.57;;
43857;SDS011;29507;51.284;5.758;2022-09-03T06:36:30;3.03;;;1.13;;
43857;SDS011;29507;51.284;5.758;2022-09-03T06:38:56;2.10;;;0.95;;
43857;SDS011;29507;51.284;5.758;2022-09-03T06:41:23;2.60;;;1.00;;
43857;SDS011;29507;51.284;5.758;2022-09-03T06:43:51;2.90;;;0.90;;
43857;SDS011;29507;51.284;5.758;2022-09-03T06:46:19;3.42;;;1.30;;
43857;SDS011;29507;51.284;5.758;2022-09-03T06:48:46;3.22;;;0.80;;
43857;SDS011;29507;51.284;5.758;2022-09-03T06:51:14;3.83;;;0.88;;
43857;SDS011;29507;51.284;5.758;2022-09-03T06:53:48;2.28;;;0.90;;
43857;SDS011;29507;51.284;5.758;2022-09-03T06:56:19;5.07;;;0.80;;
43857;SDS011;29507;51.284;5.758;2022-09-03T06:58:50;2.35;;;0.98;;
43857;SDS011;29507;51.284;5.758;2022-09-03T07:01:18;3.10;;;0.80;;
43857;SDS011;29507;51.284;5.758;2022-09-03T07:03:51;3.13;;;0.85;;
43857;SDS011;29507;51.284;5.758;2022-09-03T07:06:20;5.75;;;1.05;;
43857;SDS011;29507;51.284;5.758;2022-09-03T07:08:47;3.28;;;1.20;;
43857;SDS011;29507;51.284;5.758;2022-09-03T07:11:13;5.03;;;0.90;;
43857;SDS011;29507;51.284;5.758;2022-09-03T07:13:44;3.90;;;1.02;;
43857;SDS011;29507;51.284;5.758;2022-09-03T07:16:13;3.78;;;1.23;;
43857;SDS011;29507;51.284;5.758;2022-09-03T07:21:08;5.72;;;1.50;;
43857;SDS011;29507;51.284;5.758;2022-09-03T07:23:36;2.23;;;1.00;;
43857;SDS011;29507;51.284;5.758;2022-09-03T07:26:13;2.08;;;0.70;;
43857;SDS011;29507;51.284;5.758;2022-09-03T07:28:41;6.13;;;1.10;;
43857;SDS011;29507;51.284;5.758;2022-09-03T07:31:11;3.00;;;0.90;;
43857;SDS011;29507;51.284;5.758;2022-09-03T07:33:39;2.60;;;1.20;;
43857;SDS011;29507;51.284;5.758;2022-09-03T07:36:11;2.60;;;1.17;;
43857;SDS011;29507;51.284;5.758;2022-09-03T07:38:39;8.05;;;1.33;;
43857;SDS011;29507;51.284;5.758;2022-09-03T07:41:07;25.23;;;2.00;;
43857;SDS011;29507;51.284;5.758;2022-09-03T07:43:40;3.90;;;1.05;;
43857;SDS011;29507;51.284;5.758;2022-09-03T07:46:16;3.97;;;1.00;;
43857;SDS011;29507;51.284;5.758;2022-09-03T07:48:46;4.30;;;0.70;;
43857;SDS011;29507;51.284;5.758;2022-09-03T07:51:14;10.07;;;1.30;;
43857;SDS011;29507;51.284;5.758;2022-09-03T07:53:41;3.08;;;0.88;;
43857;SDS011;29507;51.284;5.758;2022-09-03T07:56:08;5.10;;;1.40;;
43857;SDS011;29507;51.284;5.758;2022-09-03T07:58:36;3.92;;;0.82;;
43857;SDS011;29507;51.284;5.758;2022-09-03T08:01:09;5.85;;;1.00;;
43857;SDS011;29507;51.284;5.758;2022-09-03T08:03:36;6.72;;;0.98;;
43857;SDS011;29507;51.284;5.758;2022-09-03T08:06:06;4.80;;;1.33;;
43857;SDS011;29507;51.284;5.758;2022-09-03T08:08:34;5.45;;;1.20;;
43857;SDS011;29507;51.284;5.758;2022-09-03T08:11:14;6.18;;;1.23;;
43857;SDS011;29507;51.284;5.758;2022-09-03T08:13:42;4.50;;;1.20;;
43857;SDS011;29507;51.284;5.758;2022-09-03T08:16:12;2.65;;;0.88;;
43857;SDS011;29507;51.284;5.758;2022-09-03T08:18:39;3.47;;;0.75;;
43857;SDS011;29507;51.284;5.758;2022-09-03T08:21:06;4.03;;;1.13;;
43857;SDS011;29507;51.284;5.758;2022-09-03T08:23:37;3.00;;;1.42;;
43857;SDS011;29507;51.284;5.758;2022-09-03T08:26:03;4.20;;;0.98;;
43857;SDS011;29507;51.284;5.758;2022-09-03T08:28:30;3.63;;;0.90;;
43857;SDS011;29507;51.284;5.758;2022-09-03T08:30:58;5.43;;;1.00;;
43857;SDS011;29507;51.284;5.758;2022-09-03T08:33:29;6.32;;;0.90;;
43857;SDS011;29507;51.284;5.758;2022-09-03T08:36:06;4.85;;;1.08;;
43857;SDS011;29507;51.284;5.758;2022-09-03T08:38:55;6.97;;;0.90;;
43857;SDS011;29507;51.284;5.758;2022-09-03T08:49:42;2.20;;;0.95;;
43857;SDS011;29507;51.284;5.758;2022-09-03T08:52:23;4.47;;;0.85;;
43857;SDS011;29507;51.284;5.758;2022-09-03T08:57:48;2.38;;;1.08;;
43857;SDS011;29507;51.284;5.758;2022-09-03T09:00:18;5.63;;;1.00;;
43857;SDS011;29507;51.284;5.758;2022-09-03T09:03:00;1.98;;;0.80;;
43857;SDS011;29507;51.284;5.758;2022-09-03T09:05:59;2.17;;;0.90;;
43857;SDS011;29507;51.284;5.758;2022-09-03T09:14:03;5.38;;;0.85;;
43857;SDS011;29507;51.284;5.758;2022-09-03T09:16:35;5.95;;;1.05;;
43857;SDS011;29507;51.284;5.758;2022-09-03T09:22:01;4.85;;;0.93;;
43857;SDS011;29507;51.284;5.758;2022-09-03T09:24:35;4.63;;;0.70;;
43857;SDS011;29507;51.284;5.758;2022-09-03T09:27:05;2.88;;;1.20;;
43857;SDS011;29507;51.284;5.758;2022-09-03T09:29:32;2.35;;;0.73;;
43857;SDS011;29507;51.284;5.758;2022-09-03T09:32:00;5.45;;;1.55;;
43857;SDS011;29507;51.284;5.758;2022-09-03T09:34:32;4.03;;;0.80;;
43857;SDS011;29507;51.284;5.758;2022-09-03T09:37:00;2.90;;;1.13;;
43857;SDS011;29507;51.284;5.758;2022-09-03T09:39:30;3.90;;;0.90;;
43857;SDS011;29507;51.284;5.758;2022-09-03T09:41:59;3.25;;;0.95;;
43857;SDS011;29507;51.284;5.758;2022-09-03T09:44:29;1.75;;;0.70;;
43857;SDS011;29507;51.284;5.758;2022-09-03T09:47:29;4.18;;;1.05;;
43857;SDS011;29507;51.284;5.758;2022-09-03T09:49:53;2.22;;;0.80;;
43857;SDS011;29507;51.284;5.758;2022-09-03T09:54:49;6.20;;;1.05;;
43857;SDS011;29507;51.284;5.758;2022-09-03T09:57:17;2.10;;;1.10;;
43857;SDS011;29507;51.284;5.758;2022-09-03T09:59:47;1.98;;;0.90;;
43857;SDS011;29507;51.284;5.758;2022-09-03T10:02:24;6.47;;;1.15;;
43857;SDS011;29507;51.284;5.758;2022-09-03T10:04:52;2.42;;;0.82;;
43857;SDS011;29507;51.284;5.758;2022-09-03T10:07:27;2.35;;;0.80;;
43857;SDS011;29507;51.284;5.758;2022-09-03T10:15:09;2.53;;;1.10;;
43857;SDS011;29507;51.284;5.758;2022-09-03T10:17:51;5.03;;;1.00;;
43857;SDS011;29507;51.284;5.758;2022-09-03T10:20:43;3.20;;;1.15;;
43857;SDS011;29507;51.284;5.758;2022-09-03T10:23:25;4.70;;;1.13;;
43857;SDS011;29507;51.284;5.758;2022-09-03T10:28:24;2.65;;;1.20;;
43857;SDS011;29507;51.284;5.758;2022-09-03T10:30:56;2.47;;;0.80;;
43857;SDS011;29507;51.284;5.758;2022-09-03T10:33:50;3.65;;;1.38;;
43857;SDS011;29507;51.284;5.758;2022-09-03T10:50:07;7.07;;;1.20;;
43857;SDS011;29507;51.284;5.758;2022-09-03T11:00:41;3.53;;;1.00;;
43857;SDS011;29507;51.284;5.758;2022-09-03T11:06:45;2.45;;;1.20;;
43857;SDS011;29507;51.284;5.758;2022-09-03T11:09:00;3.95;;;0.95;;
43857;SDS011;29507;51.284;5.758;2022-09-03T11:11:40;2.90;;;1.30;;
43857;SDS011;29507;51.284;5.758;2022-09-03T11:14:18;4.63;;;0.98;;
43857;SDS011;29507;51.284;5.758;2022-09-03T11:17:00;3.35;;;1.13;;
43857;SDS011;29507;51.284;5.758;2022-09-03T11:19:40;3.28;;;1.20;;
43857;SDS011;29507;51.284;5.758;2022-09-03T11:22:12;2.25;;;0.80;;
43857;SDS011;29507;51.284;5.758;2022-09-03T11:24:41;2.45;;;0.90;;
43857;SDS011;29507;51.284;5.758;2022-09-03T11:29:52;2.85;;;1.30;;
43857;SDS011;29507;51.284;5.758;2022-09-03T11:35:24;2.63;;;0.88;;
43857;SDS011;29507;51.284;5.758;2022-09-03T11:37:58;2.60;;;1.30;;
43857;SDS011;29507;51.284;5.758;2022-09-03T11:40:28;4.22;;;1.10;;
43857;SDS011;29507;51.284;5.758;2022-09-03T11:43:04;5.38;;;1.35;;
43857;SDS011;29507;51.284;5.758;2022-09-03T11:45:36;3.47;;;1.00;;
43857;SDS011;29507;51.284;5.758;2022-09-03T11:48:15;4.43;;;1.40;;
43857;SDS011;29507;51.284;5.758;2022-09-03T11:50:50;2.53;;;1.00;;
43857;SDS011;29507;51.284;5.758;2022-09-03T11:55:48;3.88;;;1.10;;
43857;SDS011;29507;51.284;5.758;2022-09-03T11:58:25;2.38;;;1.10;;
43857;SDS011;29507;51.284;5.758;2022-09-03T12:01:04;4.60;;;1.55;;
43857;SDS011;29507;51.284;5.758;2022-09-03T12:03:41;4.22;;;1.45;;
43857;SDS011;29507;51.284;5.758;2022-09-03T12:09:10;2.70;;;1.23;;
43857;SDS011;29507;51.284;5.758;2022-09-03T12:11:51;3.50;;;1.20;;
43857;SDS011;29507;51.284;5.758;2022-09-03T12:14:38;2.15;;;0.90;;
43857;SDS011;29507;51.284;5.758;2022-09-03T12:17:29;2.70;;;1.10;;
43857;SDS011;29507;51.284;5.758;2022-09-03T12:20:10;3.83;;;1.63;;
43857;SDS011;29507;51.284;5.758;2022-09-03T12:22:37;3.28;;;1.27;;
43857;SDS011;29507;51.284;5.758;2022-09-03T12:25:13;2.58;;;1.20;;
43857;SDS011;29507;51.284;5.758;2022-09-03T12:27:41;3.00;;;1.42;;
43857;SDS011;29507;51.284;5.758;2022-09-03T12:30:15;3.85;;;1.40;;
43857;SDS011;29507;51.284;5.758;2022-09-03T12:32:43;5.75;;;1.30;;
43857;SDS011;29507;51.284;5.758;2022-09-03T12:35:13;2.90;;;1.25;;
43857;SDS011;29507;51.284;5.758;2022-09-03T12:37:43;4.80;;;1.40;;
43857;SDS011;29507;51.284;5.758;2022-09-03T12:40:18;3.50;;;1.60;;
43857;SDS011;29507;51.284;5.758;2022-09-03T12:42:46;2.70;;;1.30;;
43857;SDS011;29507;51.284;5.758;2022-09-03T12:45:13;3.72;;;1.13;;
43857;SDS011;29507;51.284;5.758;2022-09-03T12:47:42;2.13;;;1.20;;
43857;SDS011;29507;51.284;5.758;2022-09-03T12:50:13;3.78;;;1.45;;
43857;SDS011;29507;51.284;5.758;2022-09-03T12:58:20;2.80;;;1.15;;
43857;SDS011;29507;51.284;5.758;2022-09-03T13:00:56;3.25;;;1.63;;
43857;SDS011;29507;51.284;5.758;2022-09-03T13:08:49;2.47;;;1.02;;
43857;SDS011;29507;51.284;5.758;2022-09-03T13:11:22;4.45;;;1.42;;
43857;SDS011;29507;51.284;5.758;2022-09-03T13:13:53;2.58;;;1.50;;
43857;SDS011;29507;51.284;5.758;2022-09-03T13:19:06;5.72;;;1.40;;
43857;SDS011;29507;51.284;5.758;2022-09-03T13:22:02;3.53;;;1.60;;
43857;SDS011;29507;51.284;5.758;2022-09-03T13:27:38;3.13;;;1.35;;
43857;SDS011;29507;51.284;5.758;2022-09-03T13:32:40;3.55;;;1.52;;
43857;SDS011;29507;51.284;5.758;2022-09-03T13:41:20;4.28;;;1.60;;
43857;SDS011;29507;51.284;5.758;2022-09-03T13:44:07;2.70;;;1.00;;
43857;SDS011;29507;51.284;5.758;2022-09-03T13:46:53;4.25;;;1.35;;
43857;SDS011;29507;51.284;5.758;2022-09-03T13:52:24;2.00;;;1.02;;
43857;SDS011;29507;51.284;5.758;2022-09-03T13:54:55;2.15;;;1.15;;
43857;SDS011;29507;51.284;5.758;2022-09-03T14:00:22;5.43;;;1.70;;
43857;SDS011;29507;51.284;5.758;2022-09-03T14:06:00;2.97;;;1.33;;
43857;SDS011;29507;51.284;5.758;2022-09-03T14:08:52;3.22;;;1.42;;
43857;SDS011;29507;51.284;5.758;2022-09-03T14:14:19;5.20;;;1.50;;
43857;SDS011;29507;51.284;5.758;2022-09-03T14:19:58;3.35;;;1.55;;
43857;SDS011;29507;51.284;5.758;2022-09-03T14:25:21;4.93;;;1.40;;
43857;SDS011;29507;51.284;5.758;2022-09-03T14:27:49;3.28;;;1.67;;
43857;SDS011;29507;51.284;5.758;2022-09-03T14:33:09;5.28;;;1.27;;
43857;SDS011;29507;51.284;5.758;2022-09-03T14:36:11;2.17;;;1.17;;
43857;SDS011;29507;51.284;5.758;2022-09-03T14:39:16;2.70;;;1.30;;
43857;SDS011;29507;51.284;5.758;2022-09-03T14:42:00;2.20;;;1.23;;
43857;SDS011;29507;51.284;5.758;2022-09-03T14:44:51;2.90;;;1.30;;
43857;SDS011;29507;51.284;5.758;2022-09-03T14:52:56;4.07;;;1.33;;
43857;SDS011;29507;51.284;5.758;2022-09-03T14:58:25;4.68;;;1.20;;
43857;SDS011;29507;51.284;5.758;2022-09-03T15:01:01;3.42;;;1.40;;
43857;SDS011;29507;51.284;5.758;2022-09-03T15:11:45;2.45;;;1.27;;
43857;SDS011;29507;51.284;5.758;2022-09-03T15:17:05;2.22;;;1.10;;
43857;SDS011;29507;51.284;5.758;2022-09-03T15:19:50;2.97;;;1.33;;
43857;SDS011;29507;51.284;5.758;2022-09-03T15:22:41;2.85;;;1.10;;
43857;SDS011;29507;51.284;5.758;2022-09-03T15:25:22;4.50;;;1.30;;
43857;SDS011;29507;51.284;5.758;2022-09-03T15:31:00;5.88;;;1.40;;
43857;SDS011;29507;51.284;5.758;2022-09-03T15:33:42;2.22;;;1.13;;
43857;SDS011;29507;51.284;5.758;2022-09-03T15:36:12;1.83;;;1.15;;
43857;SDS011;29507;51.284;5.758;2022-09-03T15:38:58;4.18;;;1.38;;
43857;SDS011;29507;51.284;5.758;2022-09-03T15:44:17;7.07;;;1.55;;
43857;SDS011;29507;51.284;5.758;2022-09-03T15:46:58;3.72;;;1.20;;
43857;SDS011;29507;51.284;5.758;2022-09-03T15:52:31;3.78;;;1.65;;
43857;SDS011;29507;51.284;5.758;2022-09-03T15:55:34;5.05;;;1.60;;
43857;SDS011;29507;51.284;5.758;2022-09-03T15:58:13;3.43;;;1.50;;
43857;SDS011;29507;51.284;5.758;2022-09-03T16:00:52;3.13;;;1.55;;
43857;SDS011;29507;51.284;5.758;2022-09-03T16:03:43;3.80;;;1.40;;
43857;SDS011;29507;51.284;5.758;2022-09-03T16:09:17;2.75;;;1.45;;
43857;SDS011;29507;51.284;5.758;2022-09-03T16:11:51;3.30;;;1.40;;
43857;SDS011;29507;51.284;5.758;2022-09-03T16:14:40;6.10;;;1.92;;
43857;SDS011;29507;51.284;5.758;2022-09-03T16:17:21;4.78;;;1.60;;
43857;SDS011;29507;51.284;5.758;2022-09-03T16:22:27;5.57;;;1.75;;
43857;SDS011;29507;51.284;5.758;2022-09-03T16:25:13;2.97;;;1.45;;
43857;SDS011;29507;51.284;5.758;2022-09-03T16:39:09;2.50;;;1.20;;
43857;SDS011;29507;51.284;5.758;2022-09-03T16:47:19;2.33;;;1.23;;
43857;SDS011;29507;51.284;5.758;2022-09-03T16:53:07;2.30;;;1.45;;
43857;SDS011;29507;51.284;5.758;2022-09-03T17:01:05;4.25;;;1.35;;
43857;SDS011;29507;51.284;5.758;2022-09-03T17:09:23;3.50;;;1.35;;
43857;SDS011;29507;51.284;5.758;2022-09-03T17:25:53;7.07;;;1.30;;
43857;SDS011;29507;51.284;5.758;2022-09-03T17:31:15;6.00;;;1.92;;
43857;SDS011;29507;51.284;5.758;2022-09-03T17:36:10;5.22;;;1.83;;
43857;SDS011;29507;51.284;5.758;2022-09-03T17:41:45;6.93;;;1.75;;
43857;SDS011;29507;51.284;5.758;2022-09-03T17:46:49;2.20;;;1.10;;
43857;SDS011;29507;51.284;5.758;2022-09-03T17:49:33;9.25;;;1.60;;
43857;SDS011;29507;51.284;5.758;2022-09-03T17:52:19;6.03;;;1.85;;
43857;SDS011;29507;51.284;5.758;2022-09-03T17:54:57;4.85;;;1.73;;
43857;SDS011;29507;51.284;5.758;2022-09-03T17:57:26;4.30;;;1.80;;
43857;SDS011;29507;51.284;5.758;2022-09-03T18:02:49;5.32;;;1.50;;
43857;SDS011;29507;51.284;5.758;2022-09-03T18:13:44;4.30;;;1.50;;
43857;SDS011;29507;51.284;5.758;2022-09-03T18:16:31;3.17;;;1.55;;
43857;SDS011;29507;51.284;5.758;2022-09-03T18:19:24;4.55;;;1.63;;
43857;SDS011;29507;51.284;5.758;2022-09-03T18:21:54;3.83;;;1.67;;
43857;SDS011;29507;51.284;5.758;2022-09-03T18:24:42;2.70;;;1.52;;
43857;SDS011;29507;51.284;5.758;2022-09-03T18:30:18;3.63;;;1.50;;
43857;SDS011;29507;51.284;5.758;2022-09-03T18:33:03;8.02;;;1.80;;
43857;SDS011;29507;51.284;5.758;2022-09-03T18:35:47;6.88;;;1.88;;
43857;SDS011;29507;51.284;5.758;2022-09-03T18:38:34;9.80;;;1.90;;
43857;SDS011;29507;51.284;5.758;2022-09-03T18:47:40;6.30;;;2.00;;
43857;SDS011;29507;51.284;5.758;2022-09-03T18:54:20;7.35;;;1.40;;
43857;SDS011;29507;51.284;5.758;2022-09-03T18:57:38;3.10;;;1.67;;
43857;SDS011;29507;51.284;5.758;2022-09-03T19:00:29;6.13;;;1.52;;
43857;SDS011;29507;51.284;5.758;2022-09-03T19:03:30;3.13;;;1.75;;
43857;SDS011;29507;51.284;5.758;2022-09-03T19:06:32;4.88;;;2.42;;
43857;SDS011;29507;51.284;5.758;2022-09-03T19:09:44;7.93;;;3.70;;
43857;SDS011;29507;51.284;5.758;2022-09-03T19:13:01;14.48;;;2.55;;
43857;SDS011;29507;51.284;5.758;2022-09-03T19:16:09;14.20;;;2.88;;
43857;SDS011;29507;51.284;5.758;2022-09-03T19:19:10;13.63;;;3.55;;
43857;SDS011;29507;51.284;5.758;2022-09-03T19:22:07;5.82;;;2.25;;
43857;SDS011;29507;51.284;5.758;2022-09-03T19:25:03;5.95;;;2.60;;
43857;SDS011;29507;51.284;5.758;2022-09-03T19:27:55;11.30;;;3.60;;
43857;SDS011;29507;51.284;5.758;2022-09-03T19:37:05;6.07;;;3.10;;
43857;SDS011;29507;51.284;5.758;2022-09-03T19:48:48;7.00;;;3.08;;
43857;SDS011;29507;51.284;5.758;2022-09-03T19:54:54;5.28;;;2.78;;
43857;SDS011;29507;51.284;5.758;2022-09-03T19:57:40;4.22;;;2.40;;
43857;SDS011;29507;51.284;5.758;2022-09-03T20:00:28;7.88;;;2.97;;
43857;SDS011;29507;51.284;5.758;2022-09-03T20:03:15;4.00;;;2.45;;
43857;SDS011;29507;51.284;5.758;2022-09-03T20:06:03;4.75;;;2.72;;
43857;SDS011;29507;51.284;5.758;2022-09-03T20:08:50;6.95;;;2.63;;
43857;SDS011;29507;51.284;5.758;2022-09-03T20:11:34;9.13;;;2.85;;
43857;SDS011;29507;51.284;5.758;2022-09-03T20:14:02;6.23;;;2.93;;
43857;SDS011;29507;51.284;5.758;2022-09-03T20:16:40;6.55;;;3.55;;
43857;SDS011;29507;51.284;5.758;2022-09-03T20:19:29;8.60;;;4.13;;
43857;SDS011;29507;51.284;5.758;2022-09-03T20:27:45;6.22;;;2.72;;
43857;SDS011;29507;51.284;5.758;2022-09-03T20:36:08;8.55;;;3.67;;
43857;SDS011;29507;51.284;5.758;2022-09-03T20:52:11;6.75;;;3.08;;